Time;durP1;ratioP1;P1;durP2;ratioP2;P2;SDS_P1;SDS_P2;PMS_P1;PMS_P2;Temp;Humidity;BMP_temperature;BMP_pressure;BME280_temperature;BME280_humidity;BME280_pressure;Samples;Min_cycle;Max_cycle;Signal;HPM_P1;HPM_P2
2021/10/25 00:01:56;;;;;;;13.82;10.65;;;;;;;;;;5061829;28;20200;-82
2021/10/25 00:04:23;;;;;;;14.63;10.88;;;;;;;;;;5064167;28;20271;-81
2021/10/25 00:06:51;;;;;;;13.60;10.38;;;;;;;;;;5061966;28;21152;-81
2021/10/25 00:09:18;;;;;;;15.85;10.68;;;;;;;;;;5060678;28;20278;-81
2021/10/25 00:11:45;;;;;;;12.93;10.45;;;;;;;;;;5061003;28;20285;-81
2021/10/25 00:14:12;;;;;;;13.60;10.70;;;;;;;;;;5066780;28;20273;-82
2021/10/25 00:16:42;;;;;;;15.15;10.15;;;5.00;99.90;;;;;;5059901;28;20726;-80
2021/10/25 00:19:09;;;;;;;14.60;11.52;;;;;;;;;;5063755;28;20560;-81
2021/10/25 00:21:36;;;;;;;12.40;11.13;;;;;;;;;;5066279;28;21105;-81
2021/10/25 00:24:06;;;;;;;12.82;9.93;;;;;;;;;;5067183;28;20207;-81
2021/10/25 00:26:34;;;;;;;13.68;9.27;;;;;;;;;;5065220;28;20252;-81
2021/10/25 00:29:02;;;;;;;11.50;9.55;;;;;;;;;;5066692;28;20667;-81
2021/10/25 00:31:29;;;;;;;15.07;11.32;;;;;;;;;;5063185;28;20281;-80
2021/10/25 00:33:58;;;;;;;12.07;9.80;;;;;;;;;;5068312;28;20292;-81
2021/10/25 00:36:25;;;;;;;11.63;9.93;;;;;;;;;;5064975;28;20243;-81
2021/10/25 00:38:53;;;;;;;11.20;10.00;;;;;;;;;;5066037;28;20221;-81
2021/10/25 00:41:20;;;;;;;11.10;10.00;;;;;;;;;;5066269;28;20236;-81
2021/10/25 00:43:47;;;;;;;11.13;10.00;;;;;;;;;;5063807;28;20253;-81
2021/10/25 00:46:14;;;;;;;13.85;10.60;;;;;;;;;;5064714;28;20221;-81
2021/10/25 00:48:42;;;;;;;11.55;9.75;;;;;;;;;;5065597;28;20208;-81
2021/10/25 00:51:12;;;;;;;14.60;10.00;;;;;;;;;;5065448;28;20282;-81
2021/10/25 00:53:39;;;;;;;10.18;9.07;;;;;;;;;;5064957;28;20439;-81
2021/10/25 00:56:07;;;;;;;12.32;10.32;;;4.00;99.90;;;;;;5064206;28;20199;-81
2021/10/25 00:58:34;;;;;;;12.38;9.70;;;;;;;;;;5069274;28;21889;-81
2021/10/25 01:01:02;;;;;;;11.80;10.18;;;;;;;;;;5068552;28;20285;-81
2021/10/25 01:03:30;;;;;;;10.30;9.13;;;4.90;99.90;;;;;;5064097;28;20218;-81
2021/10/25 01:05:57;;;;;;;11.80;10.20;;;;;;;;;;5067695;28;20213;-81
2021/10/25 01:08:27;;;;;;;14.25;10.63;;;4.90;99.90;;;;;;5064294;28;20718;-81
2021/10/25 01:10:54;;;;;;;12.38;10.38;;;;;;;;;;5064793;28;20225;-81
2021/10/25 01:13:21;;;;;;;10.45;9.35;;;;;;;;;;5068611;28;20285;-82
2021/10/25 01:15:49;;;;;;;10.50;9.13;;;;;;;;;;5064805;28;20196;-82
2021/10/25 01:18:16;;;;;;;14.52;9.18;;;;;;;;;;5062189;28;20228;-81
2021/10/25 01:20:44;;;;;;;10.65;9.55;;;4.80;99.90;;;;;;5066300;28;20232;-81
2021/10/25 01:23:12;;;;;;;18.80;10.32;;;;;;;;;;5065764;28;20239;-82
2021/10/25 01:25:39;;;;;;;12.43;9.73;;;;;;;;;;5065072;28;20601;-82
2021/10/25 01:28:06;;;;;;;10.02;9.18;;;;;;;;;;5063512;28;20229;-82
2021/10/25 01:30:34;;;;;;;15.07;10.68;;;;;;;;;;5062049;28;20253;-82
2021/10/25 01:33:01;;;;;;;11.45;9.82;;;;;;;;;;5066631;28;20282;-82
2021/10/25 01:35:28;;;;;;;13.38;10.15;;;;;;;;;;5065174;28;20212;-81
2021/10/25 01:37:58;;;;;;;11.25;10.15;;;;;;;;;;5059097;28;20217;-82
2021/10/25 01:40:25;;;;;;;10.68;9.57;;;;;;;;;;5067531;28;20672;-82
2021/10/25 01:42:53;;;;;;;10.52;9.20;;;;;;;;;;5068397;28;20635;-82
2021/10/25 01:45:20;;;;;;;10.30;9.30;;;;;;;;;;5065457;28;20685;-82
2021/10/25 01:47:47;;;;;;;12.75;9.82;;;;;;;;;;5062133;28;20196;-81
2021/10/25 01:50:14;;;;;;;14.15;9.35;;;;;;;;;;5065727;28;20231;-82
2021/10/25 01:52:41;;;;;;;13.68;10.57;;;;;;;;;;5063296;28;20253;-82
2021/10/25 01:55:11;;;;;;;13.65;10.57;;;4.60;99.90;;;;;;5067383;28;20248;-82
2021/10/25 01:57:38;;;;;;;10.82;9.40;;;;;;;;;;5062067;28;20283;-82
2021/10/25 02:00:06;;;;;;;13.07;10.75;;;4.40;99.90;;;;;;5064484;28;20300;-81
2021/10/25 02:02:33;;;;;;;12.45;8.55;;;;;;;;;;5063952;28;20286;-82
2021/10/25 02:05:01;;;;;;;11.35;10.15;;;;;;;;;;5066936;28;20298;-82
2021/10/25 02:07:29;;;;;;;11.23;9.70;;;;;;;;;;5062414;28;20250;-82
2021/10/25 02:09:56;;;;;;;11.05;9.30;;;;;;;;;;5064014;28;20238;-81
2021/10/25 02:12:24;;;;;;;12.32;10.15;;;;;;;;;;5066652;28;20296;-82
2021/10/25 02:14:52;;;;;;;10.07;9.05;;;;;;;;;;5064881;28;20352;-82
2021/10/25 02:17:19;;;;;;;14.93;10.68;;;;;;;;;;5060582;28;20284;-81
2021/10/25 02:19:46;;;;;;;10.32;9.15;;;;;;;;;;5066978;28;20286;-82
2021/10/25 02:22:14;;;;;;;11.60;9.18;;;;;;;;;;5066627;28;20532;-81
2021/10/25 02:24:43;;;;;;;14.20;9.50;;;;;;;;;;5064808;28;20278;-82
2021/10/25 02:27:10;;;;;;;12.68;9.60;;;;;;;;;;5061805;28;20207;-82
2021/10/25 02:29:38;;;;;;;13.30;10.32;;;;;;;;;;5066772;28;20204;-82
2021/10/25 02:32:06;;;;;;;13.30;9.55;;;4.90;99.90;;;;;;5062744;28;20726;-82
2021/10/25 02:34:34;;;;;;;9.25;8.32;;;;;;;;;;5061630;28;20620;-82
2021/10/25 02:37:02;;;;;;;10.18;9.10;;;;;;;;;;5061416;28;20263;-82
2021/10/25 02:39:29;;;;;;;11.95;9.80;;;;;;;;;;5069258;28;20197;-82
2021/10/25 02:41:56;;;;;;;10.25;9.15;;;4.50;99.90;;;;;;5062512;28;20246;-82
2021/10/25 02:44:24;;;;;;;13.13;9.80;;;;;;;;;;5065737;28;20228;-82
2021/10/25 02:46:53;;;;;;;10.70;9.20;;;;;;;;;;5061491;28;20271;-82
2021/10/25 02:49:21;;;;;;;11.38;9.65;;;4.50;99.90;;;;;;5062349;28;21031;-82
2021/10/25 02:51:48;;;;;;;12.27;9.35;;;;;;;;;;5062764;28;20274;-81
2021/10/25 02:54:15;;;;;;;11.23;9.52;;;;;;;;;;5062231;28;20288;-81
2021/10/25 02:56:42;;;;;;;12.18;8.98;;;;;;;;;;5065847;28;20197;-82
2021/10/25 02:59:10;;;;;;;12.32;9.43;;;;;;;;;;5064462;28;20223;-81
2021/10/25 03:01:37;;;;;;;10.27;9.27;;;;;;;;;;5063611;28;20200;-82
2021/10/25 03:04:06;;;;;;;10.13;9.23;;;;;;;;;;5062818;28;20254;-82
2021/10/25 03:06:33;;;;;;;14.38;9.32;;;;;;;;;;5061126;28;20242;-82
2021/10/25 03:09:01;;;;;;;10.23;9.05;;;;;;;;;;5065241;28;20266;-82
2021/10/25 03:11:29;;;;;;;11.80;9.65;;;;;;;;;;5062307;28;20216;-82
2021/10/25 03:13:56;;;;;;;13.00;9.15;;;;;;;;;;5060082;28;20251;-82
2021/10/25 03:16:24;;;;;;;9.75;7.45;;;;;;;;;;5061282;28;20227;-82
2021/10/25 03:18:51;;;;;;;11.38;9.23;;;;;;;;;;5064445;28;20196;-82
2021/10/25 03:21:20;;;;;;;10.70;8.55;;;;;;;;;;5061577;28;20225;-81
2021/10/25 03:23:48;;;;;;;9.77;8.15;;;;;;;;;;5065985;28;20628;-82
2021/10/25 03:26:15;;;;;;;9.85;7.60;;;;;;;;;;5062070;28;20324;-82
2021/10/25 03:28:43;;;;;;;10.40;8.20;;;;;;;;;;5058221;28;20222;-82
2021/10/25 03:31:11;;;;;;;12.25;9.38;;;;;;;;;;5061701;28;20693;-82
2021/10/25 03:33:38;;;;;;;10.70;9.38;;;;;;;;;;5064743;28;20679;-82
2021/10/25 03:36:06;;;;;;;9.95;8.57;;;4.20;99.90;;;;;;5061634;28;20228;-83
2021/10/25 03:38:36;;;;;;;8.90;7.78;;;;;;;;;;5064145;28;20292;-82
2021/10/25 03:41:06;;;;;;;9.70;8.45;;;;;;;;;;5065947;28;20204;-82
2021/10/25 03:43:36;;;;;;;11.32;9.23;;;;;;;;;;5063966;28;20239;-82
2021/10/25 03:46:09;;;;;;;11.43;9.13;;;;;;;;;;5061297;28;20605;-82
2021/10/25 03:48:40;;;;;;;11.13;8.88;;;;;;;;;;5064678;28;20195;-82
2021/10/25 03:51:10;;;;;;;9.52;8.52;;;;;;;;;;5061210;28;20207;-82
2021/10/25 03:53:42;;;;;;;12.63;8.70;;;;;;;;;;5063444;28;20199;-82
2021/10/25 03:56:13;;;;;;;11.27;8.70;;;;;;;;;;5061402;28;20313;-82
2021/10/25 03:59:02;;;;;;;9.85;8.55;;;;;;;;;;5062059;28;20196;-82
2021/10/25 04:01:59;;;;;;;11.75;9.25;;;;;;;;;;5062092;28;20253;-82
2021/10/25 04:13:18;;;;;;;12.88;10.40;;;;;;;;;;5063528;28;20205;-82
2021/10/25 04:26:56;;;;;;;10.70;8.32;;;;;;;;;;5060699;28;20228;-82
2021/10/25 04:29:26;;;;;;;10.50;8.88;;;;;;;;;;5062749;28;20208;-81
2021/10/25 04:31:53;;;;;;;13.18;10.02;;;;;;;;;;5061909;28;20206;-82
2021/10/25 04:34:20;;;;;;;11.13;9.77;;;;;;;;;;5063554;28;20289;-81
2021/10/25 04:36:47;;;;;;;10.50;9.50;;;;;;;;;;5065243;28;20199;-82
2021/10/25 04:39:16;;;;;;;13.02;10.80;;;;;;;;;;5069170;28;20200;-82
2021/10/25 04:41:43;;;;;;;12.73;10.45;;;;;;;;;;5069506;28;20245;-83
2021/10/25 04:44:12;;;;;;;12.25;9.75;;;;;;;;;;5060835;28;20262;-84
2021/10/25 04:46:39;;;;;;;10.10;8.95;;;;;;;;;;5068584;28;20302;-82
2021/10/25 04:49:06;;;;;;;15.45;10.25;;;;;;;;;;5069290;28;20203;-82
2021/10/25 04:51:34;;;;;;;11.80;10.60;;;;;;;;;;5069861;28;20198;-82
2021/10/25 04:54:01;;;;;;;11.02;9.93;;;;;;;;;;5067864;28;20200;-82
2021/10/25 04:56:29;;;;;;;11.98;10.43;;;;;;;;;;5059659;28;20188;-81
2021/10/25 04:58:55;;;;;;;15.45;11.32;;;4.10;99.90;;;;;;5068946;28;20209;-82
2021/10/25 05:01:24;;;;;;;16.40;11.15;;;;;;;;;;5069172;28;20266;-81
2021/10/25 05:03:51;;;;;;;17.38;10.68;;;;;;;;;;5069894;28;20264;-82
2021/10/25 05:06:19;;;;;;;20.10;10.77;;;;;;;;;;5072540;28;20990;-82
2021/10/25 05:08:48;;;;;;;25.75;12.20;;;;;;;;;;5071528;28;20203;-82
2021/10/25 05:11:15;;;;;;;21.17;13.15;;;;;;;;;;5067576;28;20200;-82
2021/10/25 05:13:43;;;;;;;21.98;12.77;;;;;;;;;;5072239;28;20203;-82
2021/10/25 05:16:11;;;;;;;19.83;10.85;;;;;;;;;;5072412;28;20200;-82
2021/10/25 05:18:39;;;;;;;12.40;10.02;;;;;;;;;;5059453;28;20227;-82
2021/10/25 05:21:10;;;;;;;12.68;9.98;;;;;;;;;;5072670;28;20236;-82
2021/10/25 05:23:37;;;;;;;11.05;9.85;;;;;;;;;;5072284;28;20200;-82
2021/10/25 05:26:04;;;;;;;11.68;9.90;;;;;;;;;;5072467;28;20213;-82
2021/10/25 05:28:31;;;;;;;10.50;9.43;;;;;;;;;;5059881;28;20602;-81
2021/10/25 05:30:58;;;;;;;12.25;10.07;;;;;;;;;;5056395;28;20217;-81
2021/10/25 05:33:25;;;;;;;10.65;9.52;;;;;;;;;;5065960;28;20646;-83
2021/10/25 05:35:54;;;;;;;13.45;8.93;;;;;;;;;;5068606;28;20274;-83
2021/10/25 05:38:21;;;;;;;12.48;10.52;;;;;;;;;;5071666;28;20271;-82
2021/10/25 05:40:48;;;;;;;13.20;10.20;;;;;;;;;;5070774;28;20757;-84
2021/10/25 05:43:16;;;;;;;10.38;9.25;;;;;;;;;;5062292;28;20207;-83
2021/10/25 05:45:43;;;;;;;10.80;9.65;;;;;;;;;;5070687;28;20201;-82
2021/10/25 05:48:10;;;;;;;11.82;9.73;;;;;;;;;;5062436;28;20237;-82
2021/10/25 05:50:37;;;;;;;12.70;10.43;;;;;;;;;;5065888;28;20235;-83
2021/10/25 05:53:06;;;;;;;14.13;9.85;;;;;;;;;;5067622;28;20749;-83
2021/10/25 05:55:34;;;;;;;14.43;11.23;;;;;;;;;;5063968;28;20194;-83
2021/10/25 05:58:01;;;;;;;13.40;9.93;;;;;;;;;;5065457;28;20314;-82
2021/10/25 06:00:30;;;;;;;12.27;10.60;;;;;;;;;;5061871;28;20196;-82
2021/10/25 06:02:58;;;;;;;15.48;9.95;;;;;;;;;;5067724;28;20196;-83
2021/10/25 06:05:28;;;;;;;12.10;10.80;;;3.90;99.90;;;;;;5065983;28;20567;-82
2021/10/25 06:07:55;;;;;;;12.75;10.30;;;;;;;;;;5063436;28;20273;-83
2021/10/25 06:10:27;;;;;;;11.98;9.73;;;3.90;99.90;;;;;;5063417;28;20236;-82
2021/10/25 06:12:57;;;;;;;14.13;11.20;;;;;;;;;;5067533;28;20219;-82
2021/10/25 06:15:29;;;;;;;12.82;10.32;;;;;;;;;;5061875;28;20197;-83
2021/10/25 06:17:58;;;;;;;13.57;10.05;;;;;;;;;;5064756;28;20219;-83
2021/10/25 06:20:27;;;;;;;13.52;9.18;;;3.90;99.90;;;;;;5062878;28;20685;-83
2021/10/25 06:22:58;;;;;;;11.52;10.32;;;;;;;;;;5067266;28;20277;-83
2021/10/25 06:29:03;;;;;;;18.95;11.55;;;;;;;;;;5033474;28;20208;-83
2021/10/25 06:31:30;;;;;;;14.10;9.80;;;;;;;;;;5047313;28;20216;-82
2021/10/25 06:34:02;;;;;;;13.95;10.90;;;;;;;;;;5050393;28;20204;-82
2021/10/25 06:36:31;;;;;;;17.02;11.35;;;;;;;;;;5041559;28;20197;-82
2021/10/25 06:39:09;;;;;;;15.77;11.32;;;;;;;;;;5049032;28;20211;-83
2021/10/25 06:41:36;;;;;;;13.50;11.02;;;;;;;;;;5038802;28;20282;-83
2021/10/25 06:44:06;;;;;;;16.15;11.02;;;;;;;;;;5045636;28;20589;-83
2021/10/25 06:46:34;;;;;;;19.60;10.82;;;;;;;;;;5043809;28;20214;-82
2021/10/25 06:49:01;;;;;;;12.52;10.65;;;;;;;;;;5045555;28;20215;-82
2021/10/25 06:51:28;;;;;;;16.15;10.38;;;;;;;;;;5044335;28;20204;-83
2021/10/25 06:53:55;;;;;;;13.60;12.07;;;;;;;;;;5044519;28;20259;-82
2021/10/25 06:56:23;;;;;;;12.65;11.30;;;;;;;;;;5042529;28;20723;-82
2021/10/25 06:58:50;;;;;;;13.00;10.38;;;;;;;;;;5042184;28;20220;-83
2021/10/25 07:01:20;;;;;;;17.70;11.07;;;;;;;;;;5041654;28;20202;-83
2021/10/25 07:03:47;;;;;;;12.90;11.38;;;;;;;;;;5044906;28;20275;-83
2021/10/25 07:06:16;;;;;;;13.02;11.07;;;;;;;;;;5043911;28;20220;-81
2021/10/25 07:08:45;;;;;;;15.52;11.15;;;;;;;;;;5043279;28;20197;-82
2021/10/25 07:11:14;;;;;;;14.93;12.13;;;;;;;;;;5041639;28;20231;-82
2021/10/25 07:13:45;;;;;;;12.00;9.98;;;;;;;;;;5046294;28;20200;-82
2021/10/25 07:16:17;;;;;;;13.35;11.95;;;;;;;;;;5044070;28;20206;-83
2021/10/25 07:18:56;;;;;;;13.77;11.50;;;;;;;;;;5038629;28;20225;-82
2021/10/25 07:21:35;;;;;;;17.05;12.55;;;;;;;;;;5045276;28;20224;-83
2021/10/25 08:00:23;;;;;;;14.38;10.27;;;;;;;;;;5039877;28;20243;-80
2021/10/25 08:05:53;;;;;;;14.38;10.20;;;;;;;;;;5035356;28;20222;-82
2021/10/25 08:08:31;;;;;;;9.55;8.00;;;;;;;;;;5042951;28;20275;-82
2021/10/25 08:11:02;;;;;;;7.63;6.78;;;;;;;;;;5041882;28;20286;-81
2021/10/25 08:13:33;;;;;;;11.80;8.15;;;;;;;;;;5042917;28;20281;-81
2021/10/25 08:16:09;;;;;;;9.13;7.47;;;;;;;;;;5039718;28;20192;-81
2021/10/25 08:18:51;;;;;;;8.50;7.63;;;;;;;;;;5042080;28;20202;-82
2021/10/25 08:21:21;;;;;;;8.90;7.18;;;7.40;99.90;;;;;;5035437;28;20227;-82
2021/10/25 08:23:49;;;;;;;8.02;7.22;;;;;;;;;;5042286;28;20208;-82
2021/10/25 08:26:17;;;;;;;10.00;8.07;;;;;;;;;;5039382;28;20666;-81
2021/10/25 08:28:44;;;;;;;8.73;6.90;;;;;;;;;;5042016;28;20204;-81
2021/10/25 08:31:13;;;;;;;8.70;7.80;;;;;;;;;;5041698;28;20220;-81
2021/10/25 08:42:09;;;;;;;11.27;7.18;;;;;;;;;;5083209;28;20206;-81
2021/10/25 08:44:36;;;;;;;8.00;6.60;;;;;;;;;;5084976;28;20206;-83
2021/10/25 08:47:03;;;;;;;8.88;7.95;;;;;;;;;;5085098;28;20219;-81
2021/10/25 08:49:31;;;;;;;9.05;8.15;;;;;;;;;;5085536;28;20191;-81
2021/10/25 08:52:01;;;;;;;11.88;8.60;;;;;;;;;;5080173;28;20241;-81
2021/10/25 08:54:28;;;;;;;9.02;8.13;;;;;;;;;;5084431;28;20196;-81
2021/10/25 08:56:58;;;;;;;11.33;8.33;;;;;;;;;;5084203;28;20192;-81
2021/10/25 08:59:26;;;;;;;9.60;8.60;;;;;;;;;;5084053;28;21158;-82
2021/10/25 09:01:53;;;;;;;11.17;10.07;;;;;;;;;;5084869;28;20686;-80
2021/10/25 09:04:20;;;;;;;10.57;9.18;;;;;;;;;;5085292;28;20617;-79
2021/10/25 09:06:51;;;;;;;13.60;9.87;;;;;;;;;;5083819;28;20744;-81
2021/10/25 09:09:20;;;;;;;16.00;11.03;;;;;;;;;;5078140;28;21182;-81
2021/10/25 09:11:57;;;;;;;11.53;9.40;;;;;;;;;;5085780;28;20629;-81
2021/10/25 09:14:25;;;;;;;10.80;9.53;;;;;;;;;;5082452;28;20686;-81
2021/10/25 09:16:56;;;;;;;15.18;11.25;;;;;;;;;;5085191;28;20653;-80
2021/10/25 09:19:23;;;;;;;16.25;10.60;;;;;;;;;;5084158;28;20278;-80
2021/10/25 09:21:51;;;;;;;14.50;9.20;;;;;;;;;;5085051;28;20191;-81
2021/10/25 09:24:23;;;;;;;13.03;10.30;;;;;;;;;;5083622;28;20964;-81
2021/10/25 09:26:59;;;;;;;16.10;10.82;;;8.50;99.90;;;;;;5083491;28;20751;-80
2021/10/25 09:29:27;;;;;;;14.53;11.07;;;;;;;;;;5083700;28;21604;-81
2021/10/25 09:31:55;;;;;;;12.70;11.23;;;;;;;;;;5083426;28;20624;-81
2021/10/25 09:34:33;;;;;;;13.13;11.70;;;;;;;;;;5084250;28;20648;-81
2021/10/25 09:37:06;;;;;;;11.57;10.10;;;;;;;;;;5085046;28;20649;-82
2021/10/25 09:39:45;;;;;;;10.20;9.20;;;;;;;;;;5082166;28;20617;-83
2021/10/25 09:45:27;;;;;;;11.77;8.10;;;;;;;;;;5080050;28;20674;-82
2021/10/25 09:50:48;;;;;;;21.23;9.90;;;;;;;;;;5032959;28;20634;-83
2021/10/25 09:53:16;;;;;;;10.33;7.83;;;;;;;;;;5066375;28;21221;-82
2021/10/25 09:55:45;;;;;;;9.27;8.47;;;;;;;;;;5052314;28;20719;-81
2021/10/25 09:58:21;;;;;;;11.23;7.30;;;12.40;99.90;;;;;;5064041;28;20631;-83
2021/10/25 10:00:48;;;;;;;10.40;9.17;;;;;;;;;;5052312;28;20630;-80
2021/10/25 10:03:16;;;;;;;10.43;9.33;;;;;;;;;;5060690;28;20619;-80
2021/10/25 10:05:44;;;;;;;10.53;7.40;;;10.60;98.40;;;;;;5060374;28;21193;-82
2021/10/25 10:08:12;;;;;;;7.80;6.90;;;10.80;98.40;;;;;;5067683;28;20641;-84
2021/10/25 10:10:39;;;;;;;9.17;8.13;;;;;;;;;;5069054;28;20624;-82
2021/10/25 10:13:12;;;;;;;13.07;8.03;;;10.70;99.90;;;;;;5068501;28;20626;-81
2021/10/25 10:15:42;;;;;;;12.67;8.60;;;;;;;;;;5069402;28;20661;-82
2021/10/25 10:18:11;;;;;;;10.10;8.30;;;11.10;99.60;;;;;;5065454;28;20625;-82
2021/10/25 10:20:42;;;;;;;16.53;10.80;;;11.00;99.40;;;;;;5069154;28;20622;-80
2021/10/25 10:23:14;;;;;;;8.83;7.87;;;11.30;99.20;;;;;;5069078;28;20740;-81
2021/10/25 10:25:49;;;;;;;8.90;8.00;;;11.30;99.20;;;;;;5070583;28;20618;-82
2021/10/25 10:28:19;;;;;;;8.10;7.30;;;;;;;;;;5064715;28;20625;-82
2021/10/25 10:30:52;;;;;;;7.80;6.80;;;11.50;99.20;;;;;;5069614;28;20634;-81
2021/10/25 10:33:20;;;;;;;7.90;7.13;;;;;;;;;;5069683;28;21005;-83
2021/10/25 10:35:48;;;;;;;12.87;7.13;;;;;;;;;;5071040;28;20689;-82
2021/10/25 10:38:16;;;;;;;11.43;7.10;;;;;;;;;;5066456;28;21253;-84
2021/10/25 10:40:45;;;;;;;6.20;5.57;;;;;;;;;;5066073;28;20614;-81
2021/10/25 10:43:26;;;;;;;9.00;7.30;;;;;;;;;;5069772;28;20634;-83
2021/10/25 10:46:00;;;;;;;9.40;7.27;;;;;;;;;;5069218;28;20614;-81
2021/10/25 10:48:30;;;;;;;11.27;7.40;;;;;;;;;;5068229;28;20626;-82
2021/10/25 10:51:03;;;;;;;9.70;8.20;;;11.80;98.50;;;;;;5069979;28;20633;-80
2021/10/25 10:53:32;;;;;;;9.53;8.20;;;;;;;;;;5068827;28;20717;-81
2021/10/25 10:56:03;;;;;;;11.60;6.67;;;;;;;;;;5070869;28;20789;-82
2021/10/25 10:58:48;;;;;;;7.10;6.40;;;;;;;;;;5062653;28;20669;-81
2021/10/25 11:01:19;;;;;;;9.33;7.77;;;;;;;;;;5063885;28;20717;-82
2021/10/25 11:03:57;;;;;;;9.03;7.17;;;;;;;;;;5068998;28;20676;-82
2021/10/25 11:06:30;;;;;;;8.47;7.50;;;;;;;;;;5065198;28;20614;-81
2021/10/25 11:08:57;;;;;;;7.17;5.90;;;;;;;;;;5067339;28;20682;-82
2021/10/25 11:11:25;;;;;;;7.17;6.47;;;;;;;;;;5064621;28;20723;-80
2021/10/25 11:13:56;;;;;;;7.20;6.47;;;;;;;;;;5062058;28;20630;-81
2021/10/25 11:16:28;;;;;;;7.30;6.60;;;12.20;98.50;;;;;;5064418;28;21055;-80
2021/10/25 11:18:58;;;;;;;6.73;6.13;;;12.10;98.40;;;;;;5067106;28;20633;-82
2021/10/25 11:21:29;;;;;;;7.70;6.00;;;12.20;97.90;;;;;;5067331;28;20687;-82
2021/10/25 11:24:00;;;;;;;7.07;6.40;;;12.60;98.20;;;;;;5066928;28;20992;-82
2021/10/25 11:26:29;;;;;;;8.50;7.37;;;12.20;98.00;;;;;;5068718;28;20649;-80
2021/10/25 11:29:07;;;;;;;9.70;7.60;;;12.30;98.40;;;;;;5066804;28;20625;-82
2021/10/25 11:31:37;;;;;;;17.23;7.53;;;12.30;97.80;;;;;;5068989;28;20647;-81
2021/10/25 11:34:08;;;;;;;7.40;6.43;;;;;;;;;;5062701;28;21179;-82
2021/10/25 11:36:36;;;;;;;7.80;6.57;;;;;;;;;;5068805;28;21281;-81
2021/10/25 11:39:09;;;;;;;9.40;7.10;;;12.40;97.60;;;;;;5068400;28;20622;-81
2021/10/25 11:41:46;;;;;;;8.33;7.10;;;;;;;;;;5068519;28;20618;-82
2021/10/25 11:44:16;;;;;;;9.27;7.10;;;;;;;;;;5066921;28;20658;-82
2021/10/25 11:46:44;;;;;;;6.17;5.40;;;12.50;96.90;;;;;;5064245;28;20626;-82
2021/10/25 11:49:12;;;;;;;7.83;5.60;;;;;;;;;;5067448;28;20716;-80
2021/10/25 11:51:47;;;;;;;6.57;5.20;;;;;;;;;;5063722;28;21027;-82
2021/10/25 11:54:15;;;;;;;5.93;5.40;;;;;;;;;;5067755;28;20718;-82
2021/10/25 11:56:44;;;;;;;19.50;6.60;;;;;;;;;;5065661;28;20654;-82
2021/10/25 11:59:36;;;;;;;6.20;5.57;;;12.80;96.00;;;;;;5067366;28;20618;-82
2021/10/25 12:02:09;;;;;;;7.27;5.20;;;;;;;;;;5068577;28;20626;-82
2021/10/25 12:04:45;;;;;;;6.10;5.50;;;;;;;;;;5067398;28;20709;-83
2021/10/25 12:07:13;;;;;;;9.70;5.20;;;;;;;;;;5065734;28;20701;-82
2021/10/25 12:09:40;;;;;;;10.30;5.70;;;;;;;;;;5063273;28;20641;-82
2021/10/25 12:12:13;;;;;;;5.47;4.97;;;;;;;;;;5069294;28;20645;-80
2021/10/25 12:14:44;;;;;;;5.40;4.80;;;13.10;92.90;;;;;;5057652;28;21656;-82
2021/10/25 12:17:15;;;;;;;6.23;4.93;;;13.20;93.40;;;;;;5066341;28;20657;-81
2021/10/25 12:19:45;;;;;;;5.43;4.93;;;;;;;;;;5064773;28;20630;-82
2021/10/25 12:22:16;;;;;;;6.07;4.80;;;13.40;92.50;;;;;;5061844;28;20748;-81
2021/10/25 12:24:46;;;;;;;4.27;3.87;;;13.60;90.50;;;;;;5068365;28;20700;-81
2021/10/25 12:27:15;;;;;;;5.07;3.93;;;13.50;90.80;;;;;;5068493;28;20660;-82
2021/10/25 12:29:46;;;;;;;10.87;3.63;;;;;;;;;;5067134;28;20637;-82
2021/10/25 12:32:14;;;;;;;7.70;3.67;;;;;;;;;;5064341;28;20619;-82
2021/10/25 12:34:51;;;;;;;4.20;3.73;;;;;;;;;;5067303;28;20653;-82
2021/10/25 12:37:19;;;;;;;3.03;2.73;;;;;;;;;;5064144;28;20770;-82
2021/10/25 12:39:46;;;;;;;2.77;2.53;;;;;;;;;;5058501;28;20664;-82
2021/10/25 12:42:14;;;;;;;3.37;2.70;;;;;;;;;;5068415;28;20663;-81
2021/10/25 12:44:52;;;;;;;3.10;2.87;;;14.00;90.50;;;;;;5061728;28;20610;-83
2021/10/25 12:47:22;;;;;;;4.13;2.90;;;14.20;83.90;;;;;;5067466;28;20618;-82
2021/10/25 12:49:50;;;;;;;3.37;3.07;;;11.70;76.90;;;;;;5067861;28;20622;-81
2021/10/25 12:52:18;;;;;;;4.90;2.53;;;;;;;;;;5068063;28;20684;-81
2021/10/25 12:54:57;;;;;;;4.90;3.20;;;;;;;;;;5067497;28;20678;-82
2021/10/25 12:57:26;;;;;;;3.97;3.53;;;14.60;80.30;;;;;;5066165;28;20692;-81
2021/10/25 13:00:07;;;;;;;3.50;2.73;;;14.70;80.20;;;;;;5067906;28;20622;-80
2021/10/25 13:02:41;;;;;;;4.20;3.80;;;14.70;79.40;;;;;;5065308;28;20637;-81
2021/10/25 13:05:13;;;;;;;4.73;3.83;;;14.70;79.40;;;;;;5066580;28;20626;-81
2021/10/25 13:07:44;;;;;;;3.70;2.73;;;;;;;;;;5067012;28;21198;-82
2021/10/25 13:10:12;;;;;;;2.83;2.63;;;;;;;;;;5067076;28;20633;-81
2021/10/25 13:12:39;;;;;;;2.83;2.63;;;15.10;97.90;;;;;;5065650;28;20633;-80
2021/10/25 13:15:08;;;;;;;2.27;2.10;;;14.80;68.30;;;;;;5066042;28;20730;-80
2021/10/25 13:17:36;;;;;;;1.97;1.83;;;;;;;;;;5064906;28;20746;-80
2021/10/25 13:20:03;;;;;;;3.80;2.57;;;;;;;;;;5068267;28;20687;-81
2021/10/25 13:22:30;;;;;;;4.60;2.00;;;;;;;;;;5068653;28;20690;-82
2021/10/25 13:24:57;;;;;;;3.70;2.07;;;;;;;;;;5069225;28;20614;-81
2021/10/25 13:27:25;;;;;;;3.80;2.00;;;;;;;;;;5067112;28;20625;-80
2021/10/25 13:29:52;;;;;;;2.00;1.87;;;;;;;;;;5071390;28;20667;-81
2021/10/25 13:32:21;;;;;;;3.17;1.97;;;;;;;;;;5069762;28;20622;-81
2021/10/25 13:34:49;;;;;;;3.40;2.00;;;;;;;;;;5071137;28;20986;-81
2021/10/25 13:37:16;;;;;;;2.80;2.03;;;;;;;;;;5070178;28;20760;-80
2021/10/25 13:39:44;;;;;;;8.30;2.87;;;;;;;;;;5061410;28;22141;-81
2021/10/25 13:42:11;;;;;;;3.20;2.20;;;;;;;;;;5069263;28;21206;-81
2021/10/25 13:44:38;;;;;;;2.50;2.30;;;;;;;;;;5071351;28;20686;-81
2021/10/25 13:47:05;;;;;;;2.73;2.07;;;;;;;;;;5069802;28;20620;-81
2021/10/25 13:49:34;;;;;;;2.67;2.20;;;;;;;;;;5071096;28;20675;-81
2021/10/25 13:52:01;;;;;;;3.37;2.67;;;;;;;;;;5070562;28;20644;-80
2021/10/25 13:54:30;;;;;;;4.70;2.87;;;;;;;;;;5071198;28;20701;-81
2021/10/25 13:56:58;;;;;;;3.27;3.07;;;;;;;;;;5068112;28;21240;-80
2021/10/25 13:59:25;;;;;;;8.90;4.00;;;;;;;;;;5066534;28;20634;-82
2021/10/25 14:01:52;;;;;;;3.20;2.90;;;;;;;;;;5059907;28;20617;-81
2021/10/25 14:04:21;;;;;;;4.50;3.10;;;;;;;;;;5069450;28;20625;-81
2021/10/25 14:06:49;;;;;;;5.47;2.60;;;;;;;;;;5066451;28;20635;-82
2021/10/25 14:09:16;;;;;;;5.67;2.63;;;;;;;;;;5062886;28;20642;-82
2021/10/25 14:11:46;;;;;;;3.33;2.00;;;;;;;;;;5070508;28;20610;-82
2021/10/25 14:14:25;;;;;;;2.47;2.00;;;;;;;;;;5067247;28;20654;-80
2021/10/25 14:16:54;;;;;;;3.40;2.30;;;;;;;;;;5068508;28;20692;-81
2021/10/25 14:19:22;;;;;;;3.20;2.43;;;;;;;;;;5070338;28;20625;-81
2021/10/25 14:21:51;;;;;;;4.37;2.00;;;14.30;72.80;;;;;;5069955;28;20626;-81
2021/10/25 14:24:19;;;;;;;2.90;2.60;;;;;;;;;;5063653;28;20779;-80
2021/10/25 14:26:47;;;;;;;2.60;2.40;;;;;;;;;;5070441;28;20652;-81
2021/10/25 14:29:14;;;;;;;4.90;2.30;;;;;;;;;;5069846;28;20720;-81
2021/10/25 14:31:44;;;;;;;5.63;2.33;;;;;;;;;;5068335;28;20614;-81
2021/10/25 14:34:12;;;;;;;3.80;2.43;;;;;;;;;;5065569;28;20645;-81
2021/10/25 14:36:41;;;;;;;3.27;2.90;;;;;;;;;;5068216;28;21051;-82
2021/10/25 14:39:21;;;;;;;2.60;2.40;;;;;;;;;;5062419;28;20742;-82
2021/10/25 14:41:55;;;;;;;3.17;2.37;;;14.00;76.90;;;;;;5069269;28;20631;-81
2021/10/25 14:44:28;;;;;;;3.90;2.90;;;13.90;76.80;;;;;;5066664;28;21210;-81
2021/10/25 14:47:15;;;;;;;2.90;2.60;;;13.40;76.30;;;;;;5067326;28;20634;-81
2021/10/25 14:55:17;;;;;;;3.40;2.90;;;;;;;;;;5067216;28;20758;-80
2021/10/25 14:57:44;;;;;;;3.93;3.30;;;;;;;;;;5062598;28;20677;-82
2021/10/25 15:00:12;;;;;;;5.40;3.27;;;;;;;;;;5067961;28;21272;-81
2021/10/25 15:02:39;;;;;;;5.47;3.30;;;;;;;;;;5069538;28;21251;-81
2021/10/25 15:05:10;;;;;;;4.10;3.57;;;13.70;83.00;;;;;;5068067;28;20614;-81
2021/10/25 15:07:37;;;;;;;7.90;3.17;;;;;;;;;;5067272;28;20634;-81
2021/10/25 15:10:05;;;;;;;11.10;5.47;;;13.70;83.70;;;;;;5067952;28;20622;-81
2021/10/25 15:12:34;;;;;;;5.93;3.20;;;;;;;;;;5067534;28;20626;-81
2021/10/25 15:15:02;;;;;;;3.40;3.10;;;;;;;;;;5064849;28;20610;-81
2021/10/25 15:17:29;;;;;;;4.07;3.37;;;;;;;;;;5059259;28;20649;-81
2021/10/25 15:19:56;;;;;;;5.13;3.30;;;;;;;;;;5052222;28;20692;-81
2021/10/25 15:22:23;;;;;;;4.53;2.77;;;;;;;;;;5050516;28;20604;-81
2021/10/25 15:24:52;;;;;;;7.23;3.10;;;;;;;;;;5069190;28;20622;-81
2021/10/25 15:27:20;;;;;;;4.47;3.00;;;;;;;;;;5059454;28;21032;-81
2021/10/25 15:29:50;;;;;;;5.30;2.87;;;13.40;86.40;;;;;;5066659;28;20630;-81
2021/10/25 15:32:19;;;;;;;7.10;3.40;;;13.50;86.10;;;;;;5067428;28;20618;-81
2021/10/25 15:34:46;;;;;;;3.67;3.17;;;;;;;;;;5064510;28;20741;-81
2021/10/25 15:37:13;;;;;;;6.70;4.60;;;;;;;;;;5068430;28;20715;-81
2021/10/25 15:39:40;;;;;;;9.07;4.30;;;;;;;;;;5060749;28;21280;-82
2021/10/25 15:42:08;;;;;;;8.00;4.30;;;;;;;;;;5065640;28;20720;-81
2021/10/25 15:44:35;;;;;;;6.97;4.20;;;;;;;;;;5065586;28;20625;-81
2021/10/25 15:47:04;;;;;;;7.73;3.90;;;;;;;;;;5067493;28;20618;-81